sensor_id;sensor_type;location;lat;lon;timestamp;temperature;humidity
26909;DHT22;14477;51.038;4.588;2023-12-28T00:00:56;12.70;99.90
26909;DHT22;14477;51.038;4.588;2023-12-28T00:03:21;12.70;99.90
26909;DHT22;14477;51.038;4.588;2023-12-28T00:05:47;12.70;99.90
26909;DHT22;14477;51.038;4.588;2023-12-28T00:08:13;12.60;99.90
26909;DHT22;14477;51.038;4.588;2023-12-28T00:10:39;12.60;99.90
26909;DHT22;14477;51.038;4.588;2023-12-28T00:13:05;12.60;99.90
26909;DHT22;14477;51.038;4.588;2023-12-28T00:15:30;12.60;99.90
26909;DHT22;14477;51.038;4.588;2023-12-28T00:17:56;12.60;99.90
26909;DHT22;14477;51.038;4.588;2023-12-28T00:20:22;12.60;99.90
26909;DHT22;14477;51.038;4.588;2023-12-28T00:22:47;12.60;99.90
26909;DHT22;14477;51.038;4.588;2023-12-28T00:25:14;12.50;99.90
26909;DHT22;14477;51.038;4.588;2023-12-28T00:27:39;12.50;99.90
26909;DHT22;14477;51.038;4.588;2023-12-28T00:30:06;12.60;99.90
26909;DHT22;14477;51.038;4.588;2023-12-28T00:32:31;12.60;99.90
26909;DHT22;14477;51.038;4.588;2023-12-28T00:34:57;12.60;99.90
26909;DHT22;14477;51.038;4.588;2023-12-28T00:37:23;12.60;99.90
26909;DHT22;14477;51.038;4.588;2023-12-28T00:39:49;12.60;99.90
26909;DHT22;14477;51.038;4.588;2023-12-28T00:42:16;12.60;99.90
26909;DHT22;14477;51.038;4.588;2023-12-28T00:44:41;12.60;99.90
26909;DHT22;14477;51.038;4.588;2023-12-28T00:47:07;12.60;99.90
26909;DHT22;14477;51.038;4.588;2023-12-28T00:49:33;12.60;99.90
26909;DHT22;14477;51.038;4.588;2023-12-28T00:51:58;12.60;99.90
26909;DHT22;14477;51.038;4.588;2023-12-28T00:54:24;12.60;99.90
26909;DHT22;14477;51.038;4.588;2023-12-28T00:56:50;12.60;99.90
26909;DHT22;14477;51.038;4.588;2023-12-28T00:59:16;12.70;99.90
26909;DHT22;14477;51.038;4.588;2023-12-28T01:01:42;12.60;99.90
26909;DHT22;14477;51.038;4.588;2023-12-28T01:04:07;12.60;99.90
26909;DHT22;14477;51.038;4.588;2023-12-28T01:06:33;12.70;99.90
26909;DHT22;14477;51.038;4.588;2023-12-28T01:08:59;12.70;99.90
26909;DHT22;14477;51.038;4.588;2023-12-28T01:11:24;12.60;99.90
26909;DHT22;14477;51.038;4.588;2023-12-28T01:13:51;12.60;99.90
26909;DHT22;14477;51.038;4.588;2023-12-28T01:16:17;12.60;99.90
26909;DHT22;14477;51.038;4.588;2023-12-28T01:18:43;12.60;99.90
26909;DHT22;14477;51.038;4.588;2023-12-28T01:21:09;12.60;99.90
26909;DHT22;14477;51.038;4.588;2023-12-28T01:23:35;12.60;99.90
26909;DHT22;14477;51.038;4.588;2023-12-28T01:26:00;12.60;99.90
26909;DHT22;14477;51.038;4.588;2023-12-28T01:28:26;12.60;99.90
26909;DHT22;14477;51.038;4.588;2023-12-28T01:30:52;12.60;99.90
26909;DHT22;14477;51.038;4.588;2023-12-28T01:33:18;12.60;99.90
26909;DHT22;14477;51.038;4.588;2023-12-28T01:35:43;12.70;99.90
26909;DHT22;14477;51.038;4.588;2023-12-28T01:38:09;12.60;99.90
26909;DHT22;14477;51.038;4.588;2023-12-28T01:40:35;12.70;99.90
26909;DHT22;14477;51.038;4.588;2023-12-28T01:43:00;12.70;99.90
26909;DHT22;14477;51.038;4.588;2023-12-28T01:45:26;12.70;99.90
26909;DHT22;14477;51.038;4.588;2023-12-28T01:47:53;12.70;99.90
26909;DHT22;14477;51.038;4.588;2023-12-28T01:50:21;12.70;99.90
26909;DHT22;14477;51.038;4.588;2023-12-28T01:52:47;12.70;99.90
26909;DHT22;14477;51.038;4.588;2023-12-28T01:55:14;12.70;99.90
26909;DHT22;14477;51.038;4.588;2023-12-28T01:57:40;12.70;99.90
26909;DHT22;14477;51.038;4.588;2023-12-28T02:00:06;12.70;99.90
26909;DHT22;14477;51.038;4.588;2023-12-28T02:02:33;12.70;99.90
26909;DHT22;14477;51.038;4.588;2023-12-28T02:05:00;12.70;99.90
26909;DHT22;14477;51.038;4.588;2023-12-28T02:07:26;12.70;99.90
26909;DHT22;14477;51.038;4.588;2023-12-28T02:09:52;12.70;99.90
26909;DHT22;14477;51.038;4.588;2023-12-28T02:12:18;12.70;99.90
26909;DHT22;14477;51.038;4.588;2023-12-28T02:14:44;12.70;99.90
26909;DHT22;14477;51.038;4.588;2023-12-28T02:17:30;12.70;99.90
26909;DHT22;14477;51.038;4.588;2023-12-28T02:19:58;12.70;99.90
26909;DHT22;14477;51.038;4.588;2023-12-28T02:22:25;12.70;99.90
26909;DHT22;14477;51.038;4.588;2023-12-28T02:25:10;12.70;99.90
26909;DHT22;14477;51.038;4.588;2023-12-28T02:27:44;12.70;99.90
26909;DHT22;14477;51.038;4.588;2023-12-28T02:30:12;12.80;99.90
26909;DHT22;14477;51.038;4.588;2023-12-28T02:35:55;12.70;99.90
26909;DHT22;14477;51.038;4.588;2023-12-28T02:38:24;12.80;99.90
26909;DHT22;14477;51.038;4.588;2023-12-28T02:40:50;12.80;99.90
26909;DHT22;14477;51.038;4.588;2023-12-28T02:43:16;12.80;99.90
26909;DHT22;14477;51.038;4.588;2023-12-28T02:45:42;12.80;99.90
26909;DHT22;14477;51.038;4.588;2023-12-28T02:48:08;12.80;99.90
26909;DHT22;14477;51.038;4.588;2023-12-28T02:50:34;12.90;99.90
26909;DHT22;14477;51.038;4.588;2023-12-28T02:53:01;12.90;99.90
26909;DHT22;14477;51.038;4.588;2023-12-28T02:55:27;12.90;99.90
26909;DHT22;14477;51.038;4.588;2023-12-28T02:57:56;12.90;99.90
26909;DHT22;14477;51.038;4.588;2023-12-28T03:00:25;13.00;99.90
26909;DHT22;14477;51.038;4.588;2023-12-28T03:02:50;13.00;99.90
26909;DHT22;14477;51.038;4.588;2023-12-28T03:05:16;12.90;99.90
26909;DHT22;14477;51.038;4.588;2023-12-28T03:07:43;13.00;99.90
26909;DHT22;14477;51.038;4.588;2023-12-28T03:10:09;12.90;99.90
26909;DHT22;14477;51.038;4.588;2023-12-28T03:12:37;13.00;99.90
26909;DHT22;14477;51.038;4.588;2023-12-28T03:15:03;13.00;99.90
26909;DHT22;14477;51.038;4.588;2023-12-28T03:17:29;12.90;99.90
26909;DHT22;14477;51.038;4.588;2023-12-28T03:19:57;13.00;99.90
26909;DHT22;14477;51.038;4.588;2023-12-28T03:22:23;13.00;99.90
26909;DHT22;14477;51.038;4.588;2023-12-28T03:24:49;13.00;99.90
26909;DHT22;14477;51.038;4.588;2023-12-28T03:27:15;13.00;99.90
26909;DHT22;14477;51.038;4.588;2023-12-28T03:29:42;13.00;99.90
26909;DHT22;14477;51.038;4.588;2023-12-28T03:32:08;13.00;99.90
26909;DHT22;14477;51.038;4.588;2023-12-28T03:34:34;13.00;99.90
26909;DHT22;14477;51.038;4.588;2023-12-28T03:37:00;13.00;99.90
26909;DHT22;14477;51.038;4.588;2023-12-28T03:39:26;13.00;99.90
26909;DHT22;14477;51.038;4.588;2023-12-28T03:41:52;13.00;99.90
26909;DHT22;14477;51.038;4.588;2023-12-28T03:44:19;13.00;99.90
26909;DHT22;14477;51.038;4.588;2023-12-28T03:46:47;13.00;99.90
26909;DHT22;14477;51.038;4.588;2023-12-28T03:49:18;13.00;99.90
26909;DHT22;14477;51.038;4.588;2023-12-28T03:51:44;12.90;99.90
26909;DHT22;14477;51.038;4.588;2023-12-28T03:54:11;13.00;99.90
26909;DHT22;14477;51.038;4.588;2023-12-28T03:56:36;12.90;99.90
26909;DHT22;14477;51.038;4.588;2023-12-28T03:59:05;13.00;99.90
26909;DHT22;14477;51.038;4.588;2023-12-28T04:01:32;13.00;99.90
26909;DHT22;14477;51.038;4.588;2023-12-28T04:03:58;13.00;99.90
26909;DHT22;14477;51.038;4.588;2023-12-28T04:06:24;13.00;99.90
26909;DHT22;14477;51.038;4.588;2023-12-28T04:08:49;13.00;99.90
26909;DHT22;14477;51.038;4.588;2023-12-28T04:11:15;13.00;99.90
26909;DHT22;14477;51.038;4.588;2023-12-28T04:13:41;13.00;99.90
26909;DHT22;14477;51.038;4.588;2023-12-28T04:16:07;13.00;99.90
26909;DHT22;14477;51.038;4.588;2023-12-28T04:18:35;13.00;99.90
26909;DHT22;14477;51.038;4.588;2023-12-28T04:21:00;13.00;99.90
26909;DHT22;14477;51.038;4.588;2023-12-28T04:23:26;13.00;99.90
26909;DHT22;14477;51.038;4.588;2023-12-28T04:25:52;13.00;99.90
26909;DHT22;14477;51.038;4.588;2023-12-28T04:28:18;13.00;99.90
26909;DHT22;14477;51.038;4.588;2023-12-28T04:30:43;13.00;99.90
26909;DHT22;14477;51.038;4.588;2023-12-28T04:33:09;13.00;99.90
26909;DHT22;14477;51.038;4.588;2023-12-28T04:35:34;13.00;99.90
26909;DHT22;14477;51.038;4.588;2023-12-28T04:38:00;13.00;99.90
26909;DHT22;14477;51.038;4.588;2023-12-28T04:40:26;13.00;99.90
26909;DHT22;14477;51.038;4.588;2023-12-28T04:42:52;13.00;99.90
26909;DHT22;14477;51.038;4.588;2023-12-28T04:45:17;13.00;99.90
26909;DHT22;14477;51.038;4.588;2023-12-28T04:47:43;13.00;99.90
26909;DHT22;14477;51.038;4.588;2023-12-28T04:50:09;13.00;99.90
26909;DHT22;14477;51.038;4.588;2023-12-28T04:52:34;13.00;99.90
26909;DHT22;14477;51.038;4.588;2023-12-28T04:55:00;13.10;99.90
26909;DHT22;14477;51.038;4.588;2023-12-28T04:57:26;13.10;99.90
26909;DHT22;14477;51.038;4.588;2023-12-28T04:59:53;13.10;99.90
26909;DHT22;14477;51.038;4.588;2023-12-28T05:02:19;13.10;99.90
26909;DHT22;14477;51.038;4.588;2023-12-28T05:04:45;13.20;99.90
26909;DHT22;14477;51.038;4.588;2023-12-28T05:07:11;13.20;99.90
26909;DHT22;14477;51.038;4.588;2023-12-28T05:09:37;13.10;99.90
26909;DHT22;14477;51.038;4.588;2023-12-28T05:12:03;13.10;99.90
26909;DHT22;14477;51.038;4.588;2023-12-28T05:14:29;13.10;99.90
26909;DHT22;14477;51.038;4.588;2023-12-28T05:16:54;13.10;99.90
26909;DHT22;14477;51.038;4.588;2023-12-28T05:19:20;13.10;99.90
26909;DHT22;14477;51.038;4.588;2023-12-28T05:21:46;13.00;99.90
26909;DHT22;14477;51.038;4.588;2023-12-28T05:24:12;13.00;99.90
26909;DHT22;14477;51.038;4.588;2023-12-28T05:26:38;13.00;99.90
26909;DHT22;14477;51.038;4.588;2023-12-28T05:29:04;13.00;99.90
26909;DHT22;14477;51.038;4.588;2023-12-28T05:31:29;13.00;99.90
26909;DHT22;14477;51.038;4.588;2023-12-28T05:33:55;13.10;99.90
26909;DHT22;14477;51.038;4.588;2023-12-28T05:36:22;13.00;99.90
26909;DHT22;14477;51.038;4.588;2023-12-28T05:38:48;13.10;99.90
26909;DHT22;14477;51.038;4.588;2023-12-28T05:41:14;13.10;99.90
26909;DHT22;14477;51.038;4.588;2023-12-28T05:43:40;13.10;99.90
26909;DHT22;14477;51.038;4.588;2023-12-28T05:46:05;13.10;99.90
26909;DHT22;14477;51.038;4.588;2023-12-28T05:48:31;13.10;99.90
26909;DHT22;14477;51.038;4.588;2023-12-28T05:50:57;13.00;99.90
26909;DHT22;14477;51.038;4.588;2023-12-28T05:53:24;13.10;99.90
26909;DHT22;14477;51.038;4.588;2023-12-28T05:55:50;13.00;99.90
26909;DHT22;14477;51.038;4.588;2023-12-28T05:58:15;13.00;99.90
26909;DHT22;14477;51.038;4.588;2023-12-28T06:00:42;13.10;99.90
26909;DHT22;14477;51.038;4.588;2023-12-28T06:03:08;13.00;99.90
26909;DHT22;14477;51.038;4.588;2023-12-28T06:05:34;13.00;99.90
26909;DHT22;14477;51.038;4.588;2023-12-28T06:08:00;13.00;99.90
26909;DHT22;14477;51.038;4.588;2023-12-28T06:10:25;13.00;99.90
26909;DHT22;14477;51.038;4.588;2023-12-28T06:12:51;13.00;99.90
26909;DHT22;14477;51.038;4.588;2023-12-28T06:15:17;13.00;99.90
26909;DHT22;14477;51.038;4.588;2023-12-28T06:17:42;12.90;99.90
26909;DHT22;14477;51.038;4.588;2023-12-28T06:20:09;12.90;99.90
26909;DHT22;14477;51.038;4.588;2023-12-28T06:22:38;12.80;99.90
26909;DHT22;14477;51.038;4.588;2023-12-28T06:25:04;12.80;99.90
26909;DHT22;14477;51.038;4.588;2023-12-28T06:27:30;12.80;99.90
26909;DHT22;14477;51.038;4.588;2023-12-28T06:29:56;12.80;99.90
26909;DHT22;14477;51.038;4.588;2023-12-28T06:32:22;12.70;99.90
26909;DHT22;14477;51.038;4.588;2023-12-28T06:34:48;12.70;99.90
26909;DHT22;14477;51.038;4.588;2023-12-28T06:37:14;12.70;99.90
26909;DHT22;14477;51.038;4.588;2023-12-28T06:39:40;12.70;99.90
26909;DHT22;14477;51.038;4.588;2023-12-28T06:42:07;12.60;99.90
26909;DHT22;14477;51.038;4.588;2023-12-28T06:44:33;12.60;99.90
26909;DHT22;14477;51.038;4.588;2023-12-28T06:46:59;12.60;99.90
26909;DHT22;14477;51.038;4.588;2023-12-28T06:49:25;12.60;99.90
26909;DHT22;14477;51.038;4.588;2023-12-28T06:51:51;12.60;99.90
26909;DHT22;14477;51.038;4.588;2023-12-28T06:54:17;12.60;99.90
26909;DHT22;14477;51.038;4.588;2023-12-28T06:56:43;12.50;99.90
26909;DHT22;14477;51.038;4.588;2023-12-28T06:59:09;12.50;99.90
26909;DHT22;14477;51.038;4.588;2023-12-28T07:01:41;12.60;99.90
26909;DHT22;14477;51.038;4.588;2023-12-28T07:04:07;12.50;99.90
26909;DHT22;14477;51.038;4.588;2023-12-28T07:06:32;12.50;99.90
26909;DHT22;14477;51.038;4.588;2023-12-28T07:08:58;12.50;99.90
26909;DHT22;14477;51.038;4.588;2023-12-28T07:11:24;12.40;99.90
26909;DHT22;14477;51.038;4.588;2023-12-28T07:13:49;12.40;99.90
26909;DHT22;14477;51.038;4.588;2023-12-28T07:16:15;12.50;99.90
26909;DHT22;14477;51.038;4.588;2023-12-28T07:18:41;12.40;99.90
26909;DHT22;14477;51.038;4.588;2023-12-28T07:21:07;12.40;99.90
26909;DHT22;14477;51.038;4.588;2023-12-28T07:23:37;12.40;99.90
26909;DHT22;14477;51.038;4.588;2023-12-28T07:26:04;12.40;99.90
26909;DHT22;14477;51.038;4.588;2023-12-28T07:28:30;12.40;99.90
26909;DHT22;14477;51.038;4.588;2023-12-28T07:30:56;12.40;99.90
26909;DHT22;14477;51.038;4.588;2023-12-28T07:33:21;12.40;99.90
26909;DHT22;14477;51.038;4.588;2023-12-28T07:35:47;12.30;99.90
26909;DHT22;14477;51.038;4.588;2023-12-28T07:38:13;13.70;99.90
26909;DHT22;14477;51.038;4.588;2023-12-28T07:40:39;12.30;99.90
26909;DHT22;14477;51.038;4.588;2023-12-28T07:43:05;12.30;99.90
26909;DHT22;14477;51.038;4.588;2023-12-28T07:45:31;12.30;99.90
26909;DHT22;14477;51.038;4.588;2023-12-28T07:48:00;12.30;99.90
26909;DHT22;14477;51.038;4.588;2023-12-28T07:50:26;12.30;99.90
26909;DHT22;14477;51.038;4.588;2023-12-28T07:52:52;12.30;99.90
26909;DHT22;14477;51.038;4.588;2023-12-28T07:55:18;12.30;99.90
26909;DHT22;14477;51.038;4.588;2023-12-28T07:57:43;12.40;99.90
26909;DHT22;14477;51.038;4.588;2023-12-28T08:00:09;12.30;99.90
26909;DHT22;14477;51.038;4.588;2023-12-28T08:02:36;12.30;99.90
26909;DHT22;14477;51.038;4.588;2023-12-28T08:05:02;12.30;99.90
26909;DHT22;14477;51.038;4.588;2023-12-28T08:07:28;12.30;99.90
26909;DHT22;14477;51.038;4.588;2023-12-28T08:09:53;12.30;99.90
26909;DHT22;14477;51.038;4.588;2023-12-28T08:12:19;12.30;99.90
26909;DHT22;14477;51.038;4.588;2023-12-28T08:14:46;12.30;99.90
26909;DHT22;14477;51.038;4.588;2023-12-28T08:17:12;12.30;99.90
26909;DHT22;14477;51.038;4.588;2023-12-28T08:19:38;12.30;99.90
26909;DHT22;14477;51.038;4.588;2023-12-28T08:22:05;12.30;99.90
26909;DHT22;14477;51.038;4.588;2023-12-28T08:24:30;12.40;99.90
26909;DHT22;14477;51.038;4.588;2023-12-28T08:26:57;12.50;99.90
26909;DHT22;14477;51.038;4.588;2023-12-28T08:29:26;12.50;99.90
26909;DHT22;14477;51.038;4.588;2023-12-28T08:31:52;12.60;99.90
26909;DHT22;14477;51.038;4.588;2023-12-28T08:34:18;12.70;99.90
26909;DHT22;14477;51.038;4.588;2023-12-28T08:36:44;12.80;99.90
26909;DHT22;14477;51.038;4.588;2023-12-28T08:39:10;12.90;99.90
26909;DHT22;14477;51.038;4.588;2023-12-28T08:41:35;12.30;99.90
26909;DHT22;14477;51.038;4.588;2023-12-28T08:44:01;13.10;99.90
26909;DHT22;14477;51.038;4.588;2023-12-28T08:46:27;13.10;99.90
26909;DHT22;14477;51.038;4.588;2023-12-28T08:48:54;13.20;99.90
26909;DHT22;14477;51.038;4.588;2023-12-28T08:51:20;13.20;99.90
26909;DHT22;14477;51.038;4.588;2023-12-28T08:53:46;13.20;99.90
26909;DHT22;14477;51.038;4.588;2023-12-28T08:56:16;13.20;99.90
26909;DHT22;14477;51.038;4.588;2023-12-28T08:58:42;13.20;99.90
26909;DHT22;14477;51.038;4.588;2023-12-28T09:01:08;13.10;99.90
26909;DHT22;14477;51.038;4.588;2023-12-28T09:03:34;13.10;99.90
26909;DHT22;14477;51.038;4.588;2023-12-28T09:06:00;13.10;99.90
26909;DHT22;14477;51.038;4.588;2023-12-28T09:08:25;13.10;99.90
26909;DHT22;14477;51.038;4.588;2023-12-28T09:10:51;13.10;99.90
26909;DHT22;14477;51.038;4.588;2023-12-28T09:13:17;13.10;99.90
26909;DHT22;14477;51.038;4.588;2023-12-28T09:15:43;13.10;99.90
26909;DHT22;14477;51.038;4.588;2023-12-28T09:18:08;13.10;99.90
26909;DHT22;14477;51.038;4.588;2023-12-28T09:20:34;13.10;99.90
26909;DHT22;14477;51.038;4.588;2023-12-28T09:23:01;13.10;99.90
26909;DHT22;14477;51.038;4.588;2023-12-28T09:25:27;13.10;99.90
26909;DHT22;14477;51.038;4.588;2023-12-28T09:27:53;13.10;99.90
26909;DHT22;14477;51.038;4.588;2023-12-28T09:30:19;13.10;99.90
26909;DHT22;14477;51.038;4.588;2023-12-28T09:32:45;13.10;99.90
26909;DHT22;14477;51.038;4.588;2023-12-28T09:35:10;13.10;99.90
26909;DHT22;14477;51.038;4.588;2023-12-28T09:37:36;13.10;99.90
26909;DHT22;14477;51.038;4.588;2023-12-28T09:40:02;13.10;99.90
26909;DHT22;14477;51.038;4.588;2023-12-28T09:45:25;13.20;99.90
26909;DHT22;14477;51.038;4.588;2023-12-28T09:47:51;13.30;99.90
26909;DHT22;14477;51.038;4.588;2023-12-28T09:50:18;13.30;99.90
26909;DHT22;14477;51.038;4.588;2023-12-28T09:52:44;13.30;99.90
26909;DHT22;14477;51.038;4.588;2023-12-28T09:55:10;12.60;99.90
26909;DHT22;14477;51.038;4.588;2023-12-28T09:57:37;13.40;99.90
26909;DHT22;14477;51.038;4.588;2023-12-28T10:00:04;13.30;99.90
26909;DHT22;14477;51.038;4.588;2023-12-28T10:02:32;13.40;99.90
26909;DHT22;14477;51.038;4.588;2023-12-28T10:05:00;13.40;99.90
26909;DHT22;14477;51.038;4.588;2023-12-28T10:07:26;13.40;99.90
26909;DHT22;14477;51.038;4.588;2023-12-28T10:09:52;13.40;99.90
26909;DHT22;14477;51.038;4.588;2023-12-28T10:12:18;13.40;99.90
26909;DHT22;14477;51.038;4.588;2023-12-28T10:14:44;13.40;99.90
26909;DHT22;14477;51.038;4.588;2023-12-28T10:17:10;13.40;99.90
26909;DHT22;14477;51.038;4.588;2023-12-28T10:19:37;13.40;99.90
26909;DHT22;14477;51.038;4.588;2023-12-28T10:22:04;13.40;99.90
26909;DHT22;14477;51.038;4.588;2023-12-28T10:24:30;13.50;99.90
26909;DHT22;14477;51.038;4.588;2023-12-28T10:26:56;13.40;99.90
26909;DHT22;14477;51.038;4.588;2023-12-28T10:29:24;13.50;99.90
26909;DHT22;14477;51.038;4.588;2023-12-28T10:31:50;13.50;99.90
26909;DHT22;14477;51.038;4.588;2023-12-28T10:34:18;13.50;99.90
26909;DHT22;14477;51.038;4.588;2023-12-28T10:36:45;13.50;99.90
26909;DHT22;14477;51.038;4.588;2023-12-28T10:39:11;13.60;99.90
26909;DHT22;14477;51.038;4.588;2023-12-28T10:41:44;13.60;99.90
26909;DHT22;14477;51.038;4.588;2023-12-28T10:44:13;13.60;99.90
26909;DHT22;14477;51.038;4.588;2023-12-28T10:46:43;13.60;99.90
26909;DHT22;14477;51.038;4.588;2023-12-28T10:49:10;13.60;99.90
26909;DHT22;14477;51.038;4.588;2023-12-28T10:51:41;13.60;99.90
26909;DHT22;14477;51.038;4.588;2023-12-28T10:54:41;13.60;99.90
26909;DHT22;14477;51.038;4.588;2023-12-28T10:57:29;13.70;99.90
26909;DHT22;14477;51.038;4.588;2023-12-28T11:00:13;13.70;99.90
26909;DHT22;14477;51.038;4.588;2023-12-28T11:02:45;13.70;99.90
26909;DHT22;14477;51.038;4.588;2023-12-28T11:05:15;13.80;99.90
26909;DHT22;14477;51.038;4.588;2023-12-28T11:07:41;13.90;99.90
26909;DHT22;14477;51.038;4.588;2023-12-28T11:10:09;13.90;99.90
26909;DHT22;14477;51.038;4.588;2023-12-28T11:12:36;13.90;99.90
26909;DHT22;14477;51.038;4.588;2023-12-28T11:15:04;14.00;99.90
26909;DHT22;14477;51.038;4.588;2023-12-28T11:17:31;14.00;99.90
26909;DHT22;14477;51.038;4.588;2023-12-28T11:19:58;14.10;99.90
26909;DHT22;14477;51.038;4.588;2023-12-28T11:22:25;14.00;99.90
26909;DHT22;14477;51.038;4.588;2023-12-28T11:24:55;14.00;99.90
26909;DHT22;14477;51.038;4.588;2023-12-28T11:27:21;14.10;99.90
26909;DHT22;14477;51.038;4.588;2023-12-28T11:29:51;14.00;99.90
26909;DHT22;14477;51.038;4.588;2023-12-28T11:32:19;14.00;99.90
26909;DHT22;14477;51.038;4.588;2023-12-28T11:34:45;14.00;99.90
26909;DHT22;14477;51.038;4.588;2023-12-28T11:37:16;14.00;99.90
26909;DHT22;14477;51.038;4.588;2023-12-28T11:39:44;14.00;99.90
26909;DHT22;14477;51.038;4.588;2023-12-28T11:42:10;14.00;99.90
26909;DHT22;14477;51.038;4.588;2023-12-28T11:44:41;14.00;99.90
26909;DHT22;14477;51.038;4.588;2023-12-28T11:47:24;14.10;99.90
26909;DHT22;14477;51.038;4.588;2023-12-28T11:49:50;14.10;99.90
26909;DHT22;14477;51.038;4.588;2023-12-28T11:52:30;14.10;99.90
26909;DHT22;14477;51.038;4.588;2023-12-28T11:54:57;14.10;99.90
26909;DHT22;14477;51.038;4.588;2023-12-28T11:57:23;14.20;99.90
26909;DHT22;14477;51.038;4.588;2023-12-28T12:00:02;14.20;99.90
26909;DHT22;14477;51.038;4.588;2023-12-28T12:02:29;14.20;99.90
26909;DHT22;14477;51.038;4.588;2023-12-28T12:04:55;13.10;99.90
26909;DHT22;14477;51.038;4.588;2023-12-28T12:07:27;14.20;99.90
26909;DHT22;14477;51.038;4.588;2023-12-28T12:09:56;14.20;99.90
26909;DHT22;14477;51.038;4.588;2023-12-28T12:12:23;14.20;99.90
26909;DHT22;14477;51.038;4.588;2023-12-28T12:14:48;14.20;99.90
26909;DHT22;14477;51.038;4.588;2023-12-28T12:17:14;14.20;99.90
26909;DHT22;14477;51.038;4.588;2023-12-28T12:19:40;14.20;99.90
26909;DHT22;14477;51.038;4.588;2023-12-28T12:22:06;14.20;99.90
26909;DHT22;14477;51.038;4.588;2023-12-28T12:24:32;14.20;99.90
26909;DHT22;14477;51.038;4.588;2023-12-28T12:26:58;14.20;99.90
26909;DHT22;14477;51.038;4.588;2023-12-28T12:29:29;14.20;99.90
26909;DHT22;14477;51.038;4.588;2023-12-28T12:31:55;14.20;99.90
26909;DHT22;14477;51.038;4.588;2023-12-28T12:34:22;14.20;99.90
26909;DHT22;14477;51.038;4.588;2023-12-28T12:36:47;14.20;99.90
26909;DHT22;14477;51.038;4.588;2023-12-28T12:39:16;14.20;99.90
26909;DHT22;14477;51.038;4.588;2023-12-28T12:41:41;14.20;99.90
26909;DHT22;14477;51.038;4.588;2023-12-28T12:44:08;14.20;99.90
26909;DHT22;14477;51.038;4.588;2023-12-28T12:46:35;14.30;99.90
26909;DHT22;14477;51.038;4.588;2023-12-28T12:49:01;14.20;99.90
26909;DHT22;14477;51.038;4.588;2023-12-28T12:51:28;14.20;99.90
26909;DHT22;14477;51.038;4.588;2023-12-28T12:54:01;14.20;99.90
26909;DHT22;14477;51.038;4.588;2023-12-28T12:56:29;14.20;99.90
26909;DHT22;14477;51.038;4.588;2023-12-28T12:58:56;14.20;99.90
26909;DHT22;14477;51.038;4.588;2023-12-28T13:01:24;14.20;99.90
26909;DHT22;14477;51.038;4.588;2023-12-28T13:03:50;14.20;99.90
26909;DHT22;14477;51.038;4.588;2023-12-28T13:06:17;14.20;99.90
26909;DHT22;14477;51.038;4.588;2023-12-28T13:08:43;14.20;99.90
26909;DHT22;14477;51.038;4.588;2023-12-28T13:11:09;14.10;99.90
26909;DHT22;14477;51.038;4.588;2023-12-28T13:13:35;14.10;99.90
26909;DHT22;14477;51.038;4.588;2023-12-28T13:16:04;14.10;99.90
26909;DHT22;14477;51.038;4.588;2023-12-28T13:18:30;14.10;99.90
26909;DHT22;14477;51.038;4.588;2023-12-28T13:20:58;14.10;99.90
26909;DHT22;14477;51.038;4.588;2023-12-28T13:23:23;14.10;99.90
26909;DHT22;14477;51.038;4.588;2023-12-28T13:25:49;14.10;99.90
26909;DHT22;14477;51.038;4.588;2023-12-28T13:28:15;14.10;99.90
26909;DHT22;14477;51.038;4.588;2023-12-28T13:30:40;14.10;99.90
26909;DHT22;14477;51.038;4.588;2023-12-28T13:33:06;14.10;99.90
26909;DHT22;14477;51.038;4.588;2023-12-28T13:35:32;13.80;99.90
26909;DHT22;14477;51.038;4.588;2023-12-28T13:38:01;14.00;99.90
26909;DHT22;14477;51.038;4.588;2023-12-28T13:40:29;14.00;99.90
26909;DHT22;14477;51.038;4.588;2023-12-28T13:42:56;14.00;99.90
26909;DHT22;14477;51.038;4.588;2023-12-28T13:45:22;14.00;99.90
26909;DHT22;14477;51.038;4.588;2023-12-28T13:47:48;13.90;99.90
26909;DHT22;14477;51.038;4.588;2023-12-28T13:50:14;14.00;99.90
26909;DHT22;14477;51.038;4.588;2023-12-28T13:52:39;14.00;99.90
26909;DHT22;14477;51.038;4.588;2023-12-28T13:55:05;15.90;99.90
26909;DHT22;14477;51.038;4.588;2023-12-28T13:57:31;14.00;99.90
26909;DHT22;14477;51.038;4.588;2023-12-28T13:59:57;14.00;99.90
26909;DHT22;14477;51.038;4.588;2023-12-28T14:02:28;14.00;99.90
26909;DHT22;14477;51.038;4.588;2023-12-28T14:04:54;14.00;99.90
26909;DHT22;14477;51.038;4.588;2023-12-28T14:07:22;14.00;99.90
26909;DHT22;14477;51.038;4.588;2023-12-28T14:09:48;13.90;99.90
26909;DHT22;14477;51.038;4.588;2023-12-28T14:12:13;13.90;99.90
26909;DHT22;14477;51.038;4.588;2023-12-28T14:14:39;13.90;99.90
26909;DHT22;14477;51.038;4.588;2023-12-28T14:17:05;13.90;99.90
26909;DHT22;14477;51.038;4.588;2023-12-28T14:19:31;13.90;99.90
26909;DHT22;14477;51.038;4.588;2023-12-28T14:21:58;13.90;99.90
26909;DHT22;14477;51.038;4.588;2023-12-28T14:24:24;13.90;99.90
26909;DHT22;14477;51.038;4.588;2023-12-28T14:26:53;13.80;99.90
26909;DHT22;14477;51.038;4.588;2023-12-28T14:29:20;13.80;99.90
26909;DHT22;14477;51.038;4.588;2023-12-28T14:31:46;13.80;99.90
26909;DHT22;14477;51.038;4.588;2023-12-28T14:34:12;13.80;99.90
26909;DHT22;14477;51.038;4.588;2023-12-28T14:36:39;13.80;99.90
26909;DHT22;14477;51.038;4.588;2023-12-28T14:39:06;13.80;99.90
26909;DHT22;14477;51.038;4.588;2023-12-28T14:41:34;13.80;99.90
26909;DHT22;14477;51.038;4.588;2023-12-28T14:44:00;13.70;99.90
26909;DHT22;14477;51.038;4.588;2023-12-28T14:46:25;13.70;99.90
26909;DHT22;14477;51.038;4.588;2023-12-28T14:48:52;13.70;99.90
26909;DHT22;14477;51.038;4.588;2023-12-28T14:51:18;13.70;99.90
26909;DHT22;14477;51.038;4.588;2023-12-28T14:53:44;13.70;99.90
26909;DHT22;14477;51.038;4.588;2023-12-28T14:56:10;13.70;99.90
26909;DHT22;14477;51.038;4.588;2023-12-28T14:58:38;13.70;99.90
26909;DHT22;14477;51.038;4.588;2023-12-28T15:01:03;13.70;99.90
26909;DHT22;14477;51.038;4.588;2023-12-28T15:03:29;13.70;99.90
26909;DHT22;14477;51.038;4.588;2023-12-28T15:05:55;13.60;99.90
26909;DHT22;14477;51.038;4.588;2023-12-28T15:08:23;13.60;99.90
26909;DHT22;14477;51.038;4.588;2023-12-28T15:10:49;13.60;99.90
26909;DHT22;14477;51.038;4.588;2023-12-28T15:13:15;13.50;99.90
26909;DHT22;14477;51.038;4.588;2023-12-28T15:15:45;13.60;99.90
26909;DHT22;14477;51.038;4.588;2023-12-28T15:18:11;13.50;99.90
26909;DHT22;14477;51.038;4.588;2023-12-28T15:20:37;13.50;99.90
26909;DHT22;14477;51.038;4.588;2023-12-28T15:23:03;13.50;99.90
26909;DHT22;14477;51.038;4.588;2023-12-28T15:25:29;13.50;99.90
26909;DHT22;14477;51.038;4.588;2023-12-28T15:27:55;13.50;99.90
26909;DHT22;14477;51.038;4.588;2023-12-28T15:30:21;13.40;99.90
26909;DHT22;14477;51.038;4.588;2023-12-28T15:32:47;13.40;99.90